Hauptseite
METAR-TAF:

METAR-TAF

Flughäfen :

Bournemouth Airport

Bournemouth, England

Breite: 50-47N, Länge: 001-50W, Höhe: 11 m

Beobachtung

Neuester Wetterbericht von vor 18 Minuten, um 06:50 UTC
Wind 2 kt aus Nord/Nordost
Temperatur 14°C
Luftfeuchtigkeit 100%
Luftdruck 1018 hPa
Sichtweite 10 km oder mehr
Leicht bewölkt in der Höhe von 100 ft

METAR: EGHH 180650Z 02002KT 9999 FEW001 14/14 Q1018

Zeit: 08:08 (07:08 UTC)

Prognose

Neuester Wetterbericht von vor 2 Stunden und 3 Minuten, um 05:05 UTC
Gültige Prognose vom 18 um 06 UTC bis 18 um 15 UTC
Wind 5 kt aus unterschiedlichen Richtungen
Sichtweite: 0200 m
Durchbrochene Bewölkung in der Höhe weniger als 100 ft
Nebel
Übergehend zu
vom 18 um 06 UTC bis 18 um 09 UTC
Sichtweite 10 km oder mehr
Leicht bewölkt in der Höhe von 4000 ft

TAF: EGHH 180505Z 1806/1815 VRB05KT 0200 FG BKN000 BECMG 1806/1809 9999 NSW FEW040

Wetterbeobachtungen und Prognosen von mehr als 4000 Flughäfen (METAR und TAF Bericht).

Die verfügbaren Stationen werden durch gelbe und rote Markierungen auf der Karte dargestellt.

Führen Sie die Maus auf sie, um den Namen der Station zu sehen.

Darauf klicken, um die Beobachtung von Wetterbeobachtungen und Prognosen zu sehen.

Um die Karte zu ändern : klicken Sie auf den grünen Tasten mit einem schwarzen Kreuz Zum Vergrößern, auf den grünen Button mit einem Gedankenstrich zu verkleinern, oder auf die grünen Pfeile für benachbarte Karten.


METAR-TAF: